Time;durP1;ratioP1;P1;durP2;ratioP2;P2;SDS_P1;SDS_P2;PMS_P1;PMS_P2;Temp;Humidity;BMP_temperature;BMP_pressure;BME280_temperature;BME280_humidity;BME280_pressure;Samples;Min_cycle;Max_cycle;Signal;HPM_P1;HPM_P2
2022/11/10 00:03:10;;;;;;;12.82;2.28;;;;;;;;;;8347935;28;20039;-62
2022/11/10 00:07:10;;;;;;;10.00;2.08;;;;;;;;;;8350342;28;20478;-62
2022/11/10 00:11:10;;;;;;;8.05;1.60;;;;;;;;;;8347084;28;20028;-62
2022/11/10 00:19:33;;;;;;;8.82;1.52;;;;;;;;;;8346290;28;20444;-62
2022/11/10 00:23:33;;;;;;;8.15;1.52;;;;;;;;;;8351376;28;20111;-62
2022/11/10 00:27:33;;;;;;;6.47;1.50;;;;;;;;;;8350425;28;20063;-62
2022/11/10 00:31:35;;;;;;;8.10;1.75;;;;;;;;;;8350333;28;20036;-62
2022/11/10 00:35:36;;;;;;;3.83;1.27;;;;;;;;;;8348656;28;20056;-62
2022/11/10 00:39:36;;;;;;;9.80;1.67;;;;;;;;;;8347759;28;20618;-63
2022/11/10 00:43:36;;;;;;;9.27;1.85;;;;;;;;;;8347455;28;20548;-62
2022/11/10 00:47:36;;;;;;;12.85;1.85;;;;;;;;;;8328503;28;20561;-62
2022/11/10 00:51:36;;;;;;;7.03;1.60;;;;;;;;;;8346717;28;20440;-62
2022/11/10 00:55:38;;;;;;;7.55;1.90;;;;;;;;;;8347822;28;20055;-62
2022/11/10 00:59:38;;;;;;;6.18;2.15;;;;;;;;;;8348459;28;20105;-61
2022/11/10 01:03:38;;;;;;;8.88;1.83;;;;;;;;;;8346203;28;20720;-62
2022/11/10 01:07:38;;;;;;;6.40;2.05;;;;;;;;;;8347252;28;20020;-63
2022/11/10 01:11:38;;;;;;;5.53;1.60;;;;;;;;;;8349493;28;20047;-61
2022/11/10 01:15:39;;;;;;;9.10;1.75;;;;;;;;;;8344747;28;20510;-62
2022/11/10 01:19:40;;;;;;;9.07;1.60;;;;;;;;;;8326813;28;20032;-61
2022/11/10 01:23:40;;;;;;;4.90;1.60;;;;;;;;;;8344195;28;20040;-62
2022/11/10 01:27:41;;;;;;;5.35;1.65;;;;;;;;;;8345799;28;20578;-62
2022/11/10 01:31:41;;;;;;;6.68;1.70;;;;;;;;;;8342574;28;21307;-62
2022/11/10 01:35:41;;;;;;;7.68;1.80;;;;;;;;;;8347932;28;20024;-61
2022/11/10 01:39:41;;;;;;;2.85;1.40;;;;;;;;;;8345674;28;20029;-62
2022/11/10 01:43:41;;;;;;;4.32;1.67;;;;;;;;;;8345654;28;21087;-62
2022/11/10 01:47:42;;;;;;;5.27;1.53;;;;;;;;;;8346570;28;20115;-62
2022/11/10 01:52:05;;;;;;;7.22;1.52;;;;;;;;;;8345958;28;21023;-62
2022/11/10 01:56:07;;;;;;;4.97;1.80;;;;;;;;;;8316575;28;20036;-62
2022/11/10 02:00:08;;;;;;;4.93;1.52;;;;;;;;;;8345157;28;20035;-62
2022/11/10 02:04:12;;;;;;;8.80;1.63;;;;;;;;;;8346020;28;20048;-62
2022/11/10 02:08:14;;;;;;;12.95;2.05;;;;;;;;;;8344687;28;20071;-61
2022/11/10 02:12:14;;;;;;;5.10;1.27;;;;;;;;;;8345577;28;20040;-62
2022/11/10 02:16:14;;;;;;;4.97;1.65;;;;;;;;;;8343209;28;20493;-61
2022/11/10 02:20:16;;;;;;;6.43;1.60;;;;;;;;;;8343877;28;20102;-61
2022/11/10 02:24:16;;;;;;;10.43;1.58;;;;;;;;;;8349576;28;20024;-62
2022/11/10 02:28:16;;;;;;;6.20;1.52;;;;;;;;;;8350010;28;20173;-61
2022/11/10 02:32:17;;;;;;;5.30;1.30;;;;;;;;;;8352017;28;20154;-61
2022/11/10 02:36:17;;;;;;;5.93;1.42;;;;;;;;;;8350695;28;20103;-62
2022/11/10 02:40:17;;;;;;;8.95;1.80;;;;;;;;;;8352298;28;20033;-62
2022/11/10 02:44:17;;;;;;;5.13;1.73;;;;;;;;;;8350332;28;20473;-61
2022/11/10 02:48:17;;;;;;;3.83;1.40;;;;;;;;;;8350126;28;20037;-61
2022/11/10 02:52:18;;;;;;;6.95;1.75;;;;;;;;;;8352469;28;20120;-62
2022/11/10 02:56:18;;;;;;;6.50;2.60;;;;;;;;;;8350486;28;20032;-61
2022/11/10 03:00:18;;;;;;;3.35;1.95;;;;;;;;;;8350535;28;20496;-62
2022/11/10 03:04:19;;;;;;;5.50;1.52;;;;;;;;;;8349605;28;20444;-60
2022/11/10 03:08:19;;;;;;;6.68;2.08;;;;;;;;;;8352326;28;20046;-61
2022/11/10 03:12:19;;;;;;;5.88;1.75;;;;;;;;;;8350815;28;20035;-62
2022/11/10 03:16:19;;;;;;;6.53;1.75;;;;;;;;;;8350179;28;20047;-61
2022/11/10 03:20:19;;;;;;;4.20;1.55;;;;;;;;;;8349123;28;20035;-61
2022/11/10 03:24:20;;;;;;;3.75;1.60;;;;;;;;;;8351597;28;20021;-61
2022/11/10 03:28:20;;;;;;;3.28;1.40;;;;;;;;;;8351376;28;20920;-62
2022/11/10 03:32:20;;;;;;;9.93;1.98;;;;;;;;;;8350480;28;20504;-61
2022/11/10 03:36:20;;;;;;;7.50;2.13;;;;;;;;;;8332421;28;20028;-61
2022/11/10 03:40:20;;;;;;;7.55;2.30;;;;;;;;;;8350445;28;20470;-61
2022/11/10 03:44:21;;;;;;;6.00;2.22;;;;;;;;;;8350686;28;20655;-61
2022/11/10 03:48:21;;;;;;;9.30;2.72;;;;;;;;;;8350868;28;20423;-61
2022/11/10 03:52:21;;;;;;;5.55;2.10;;;;;;;;;;8350378;28;20037;-62
2022/11/10 03:56:21;;;;;;;6.20;2.40;;;;;;;;;;8350501;28;20485;-61
2022/11/10 04:00:22;;;;;;;6.38;2.38;;;;;;;;;;8349370;28;20065;-61
2022/11/10 04:08:59;;;;;;;8.10;2.80;;;;;;;;;;8349408;28;20053;-61
2022/11/10 04:17:18;;;;;;;5.40;2.38;;;;;;;;;;8347842;28;20074;-61
2022/11/10 04:21:18;;;;;;;5.88;2.17;;;;;;;;;;8347477;28;20021;-61
2022/11/10 04:25:18;;;;;;;8.68;2.53;;;;;;;;;;8349666;28;20112;-61
2022/11/10 04:29:19;;;;;;;5.85;2.15;;;;;;;;;;8346105;28;20037;-61
2022/11/10 04:33:19;;;;;;;10.48;2.90;;;;;;;;;;8349939;28;20574;-61
2022/11/10 04:37:19;;;;;;;6.45;2.40;;;;;;;;;;8347429;28;20027;-61
2022/11/10 04:41:19;;;;;;;6.72;2.30;;;;;;;;;;8348673;28;20017;-61
2022/11/10 04:45:20;;;;;;;4.53;2.60;;;;;;;;;;8345612;28;20016;-61
2022/11/10 04:49:20;;;;;;;9.98;3.15;;;;;;;;;;8347849;28;20701;-62
2022/11/10 04:53:20;;;;;;;5.80;2.72;;;;;;;;;;8347373;28;20066;-62
2022/11/10 04:57:20;;;;;;;7.10;2.88;;;;;;;;;;8347388;28;20036;-61
2022/11/10 05:01:22;;;;;;;4.70;2.65;;;;;;;;;;8346881;28;20032;-61
2022/11/10 05:05:22;;;;;;;9.07;2.80;;;;;;;;;;8346974;28;20028;-61
2022/11/10 05:09:22;;;;;;;7.80;3.10;;;;;;;;;;8347225;28;20032;-61
2022/11/10 05:13:22;;;;;;;5.38;2.70;;;;;;;;;;8347973;28;20035;-62
2022/11/10 05:17:23;;;;;;;8.82;2.95;;;;;;;;;;8347119;28;20052;-61
2022/11/10 05:21:23;;;;;;;8.00;3.17;;;;;;;;;;8345301;28;20283;-61
2022/11/10 05:25:23;;;;;;;9.95;3.55;;;;;;;;;;8329835;28;20187;-61
2022/11/10 05:29:23;;;;;;;9.23;4.03;;;;;;;;;;8347671;28;20363;-61
2022/11/10 05:33:23;;;;;;;10.43;3.58;;;;;;;;;;8345833;28;20083;-61
2022/11/10 05:37:24;;;;;;;9.45;4.38;;;;;;;;;;8339897;28;20032;-61
2022/11/10 05:41:24;;;;;;;10.25;4.78;;;;;;;;;;8344415;28;20020;-61
2022/11/10 05:45:26;;;;;;;11.07;4.25;;;;;;;;;;8344277;28;20560;-62
2022/11/10 05:49:26;;;;;;;7.22;3.67;;;;;;;;;;8345865;28;20155;-61
2022/11/10 05:53:26;;;;;;;8.95;3.80;;;;;;;;;;8345860;28;20162;-61
2022/11/10 05:57:26;;;;;;;7.25;3.50;;;;;;;;;;8342595;28;20335;-61
2022/11/10 06:01:27;;;;;;;9.15;3.40;;;;;;;;;;8328624;28;20217;-61
2022/11/10 06:05:28;;;;;;;14.27;4.35;;;;;;;;;;8344363;28;20444;-61
2022/11/10 06:09:28;;;;;;;10.15;4.00;;;;;;;;;;8345704;28;20024;-61
2022/11/10 06:13:28;;;;;;;7.35;3.55;;;;;;;;;;8344837;28;20028;-62
2022/11/10 06:17:29;;;;;;;8.88;4.00;;;;;;;;;;8344574;28;20087;-61
2022/11/10 06:21:29;;;;;;;11.77;4.18;;;;;;;;;;8345040;28;20024;-61
2022/11/10 06:25:30;;;;;;;11.10;4.53;;;;;;;;;;8345692;28;20067;-61
2022/11/10 06:29:30;;;;;;;11.93;4.07;;;;;;;;;;8341980;28;20020;-61
2022/11/10 06:33:31;;;;;;;9.00;4.68;;;;;;;;;;8345688;28;20079;-61
2022/11/10 06:37:31;;;;;;;15.07;4.75;;;;;;;;;;8330780;28;20048;-61
2022/11/10 06:41:32;;;;;;;9.07;4.55;;;;;;;;;;8344464;28;20303;-62
2022/11/10 06:45:32;;;;;;;14.93;4.57;;;;;;;;;;8345002;28;20040;-62
2022/11/10 06:49:33;;;;;;;10.38;4.47;;;;;;;;;;8343241;28;20034;-61
2022/11/10 06:53:33;;;;;;;15.73;4.25;;;;;;;;;;8347055;28;20025;-62
2022/11/10 06:57:37;;;;;;;10.57;4.13;;;;;;;;;;8326741;28;20111;-62
2022/11/10 07:01:38;;;;;;;12.73;4.03;;;;;;;;;;8346891;28;20472;-61
2022/11/10 07:05:38;;;;;;;14.10;4.53;;;;;;;;;;8344605;28;20020;-61
2022/11/10 07:09:38;;;;;;;11.32;3.83;;;;;;;;;;8346320;28;20021;-61
2022/11/10 07:13:39;;;;;;;9.30;3.90;;;;;;;;;;8349431;28;20023;-61
2022/11/10 07:17:39;;;;;;;9.13;4.07;;;;;;;;;;8350058;28;20508;-61
2022/11/10 07:21:40;;;;;;;8.27;3.60;;;;;;;;;;8349721;28;20829;-62
2022/11/10 07:25:40;;;;;;;9.73;3.47;;;;;;;;;;8348465;28;20012;-62
2022/11/10 07:29:41;;;;;;;14.43;3.77;;;;;;;;;;8350705;28;20043;-62
2022/11/10 07:33:42;;;;;;;8.37;3.50;;;;;;;;;;8346741;28;20345;-62
2022/11/10 07:37:43;;;;;;;13.18;3.83;;;;;;;;;;8348018;28;20653;-62
2022/11/10 07:41:43;;;;;;;13.30;3.92;;;;;;;;;;8351397;28;20674;-62
2022/11/10 07:45:43;;;;;;;11.13;3.75;;;;;;;;;;8347752;28;20407;-62
2022/11/10 07:49:43;;;;;;;12.48;3.42;;;;;;;;;;8348529;28;20852;-62
2022/11/10 07:53:43;;;;;;;13.07;4.40;;;;;;;;;;8350184;28;20269;-62
2022/11/10 07:57:43;;;;;;;12.63;4.33;;;;;;;;;;8348123;28;20751;-64
2022/11/10 08:01:44;;;;;;;8.60;4.25;;;;;;;;;;8345597;28;21053;-62
2022/11/10 08:05:44;;;;;;;11.63;4.40;;;;;;;;;;8345750;28;20389;-62
2022/11/10 08:09:45;;;;;;;8.55;3.90;;;;;;;;;;8346791;28;20020;-62
2022/11/10 08:13:45;;;;;;;11.50;4.30;;;;;;;;;;8350185;28;20036;-62
2022/11/10 08:17:45;;;;;;;14.35;5.05;;;;;;;;;;8346325;28;20036;-62
2022/11/10 08:21:45;;;;;;;12.75;4.95;;;;;;;;;;8346306;28;20469;-62
2022/11/10 08:25:46;;;;;;;13.73;5.30;;;;;;;;;;8347958;28;20039;-61
2022/11/10 08:29:46;;;;;;;16.20;6.13;;;;;;;;;;8347097;28;20308;-61
2022/11/10 08:33:47;;;;;;;14.88;5.40;;;;;;;;;;8347669;28;20123;-61
2022/11/10 08:37:47;;;;;;;12.32;4.32;;;;;;;;;;8349629;28;20123;-62
2022/11/10 08:41:47;;;;;;;12.75;5.07;;;;;;;;;;8346461;28;20311;-61
2022/11/10 08:45:47;;;;;;;11.68;4.43;;;;;;;;;;8348067;28;20134;-62
2022/11/10 08:49:48;;;;;;;13.27;4.88;;;;;;;;;;8330534;28;20025;-62
2022/11/10 08:53:48;;;;;;;9.60;4.18;;;;;;;;;;8348791;28;20028;-62
2022/11/10 08:57:48;;;;;;;13.00;4.20;;;;;;;;;;8346198;28;20535;-62
2022/11/10 09:01:48;;;;;;;9.00;3.70;;;;;;;;;;8346209;28;20202;-62
2022/11/10 09:05:49;;;;;;;8.82;3.63;;;;;;;;;;8346131;28;20038;-62
2022/11/10 09:09:49;;;;;;;8.60;3.50;;;;;;;;;;8346955;28;20055;-61
2022/11/10 09:13:49;;;;;;;9.43;3.47;;;;;;;;;;8344885;28;20593;-62
2022/11/10 09:17:50;;;;;;;8.02;3.75;;;;;;;;;;8346493;28;20569;-62
2022/11/10 09:21:50;;;;;;;10.75;4.03;;;;;;;;;;8345167;28;20081;-62
2022/11/10 09:25:52;;;;;;;8.68;3.60;;;;;;;;;;8328212;28;20044;-62
2022/11/10 09:29:52;;;;;;;10.38;3.50;;;;;;;;;;8344912;28;20301;-62
2022/11/10 09:33:52;;;;;;;10.35;4.00;;;;;;;;;;8346005;28;20033;-62
2022/11/10 09:37:52;;;;;;;10.13;4.00;;;;;;;;;;8344825;28;20025;-62
2022/11/10 09:41:53;;;;;;;9.52;3.63;;;;;;;;;;8347304;28;20017;-62
2022/11/10 09:45:56;;;;;;;10.52;4.07;;;;;;;;;;8343947;28;20183;-61
2022/11/10 09:49:57;;;;;;;12.60;4.13;;;;;;;;;;8347300;28;20024;-62
2022/11/10 09:54:00;;;;;;;14.25;3.80;;;;;;;;;;8345589;28;20032;-62
2022/11/10 09:58:01;;;;;;;10.45;4.07;;;;;;;;;;8345247;28;20036;-62
2022/11/10 10:02:12;;;;;;;7.72;3.70;;;;;;;;;;8347190;28;20036;-62
2022/11/10 10:06:14;;;;;;;9.50;3.58;;;;;;;;;;8345990;28;20047;-62
2022/11/10 10:10:17;;;;;;;9.02;3.38;;;;;;;;;;8348462;28;20063;-61
2022/11/10 10:14:17;;;;;;;8.93;3.47;;;;;;;;;;8344922;28;20028;-62
2022/11/10 10:18:18;;;;;;;10.30;3.42;;;;;;;;;;8344407;28;20045;-62
2022/11/10 10:22:24;;;;;;;9.67;3.43;;;;;;;;;;8346387;28;20099;-62
2022/11/10 10:26:26;;;;;;;9.73;3.20;;;;;;;;;;8348922;28;20695;-62
2022/11/10 10:30:27;;;;;;;6.75;3.00;;;;;;;;;;8342875;28;20044;-61
2022/11/10 10:34:29;;;;;;;7.00;3.30;;;;;;;;;;8342705;28;20016;-62
2022/11/10 10:38:33;;;;;;;7.03;3.10;;;;;;;;;;8349569;28;20028;-62
2022/11/10 10:42:35;;;;;;;8.00;2.90;;;;;;;;;;8347579;28;20016;-62
2022/11/10 10:46:43;;;;;;;7.55;3.08;;;;;;;;;;8350636;28;20420;-62
2022/11/10 10:50:45;;;;;;;9.10;3.00;;;;;;;;;;8352680;28;20555;-60
2022/11/10 10:54:45;;;;;;;6.70;3.00;;;;;;;;;;8348781;28;20032;-63
2022/11/10 10:58:52;;;;;;;5.35;2.67;;;;;;;;;;8352832;28;20024;-62
2022/11/10 11:03:05;;;;;;;6.50;2.58;;;;;;;;;;8349974;28;20028;-61
2022/11/10 11:07:18;;;;;;;9.35;3.15;;;;;;;;;;8325570;28;20121;-61
2022/11/10 11:11:22;;;;;;;10.15;3.00;;;;;;;;;;8354766;28;20029;-62
2022/11/10 11:15:27;;;;;;;5.88;2.53;;;;;;;;;;8350753;28;21963;-62
2022/11/10 11:19:34;;;;;;;6.80;2.67;;;;;;;;;;8351001;28;20929;-61
2022/11/10 11:23:50;;;;;;;5.55;2.70;;;;;;;;;;8353879;28;20031;-61
2022/11/10 11:27:58;;;;;;;6.30;2.80;;;;;;;;;;8348831;28;20024;-61
2022/11/10 11:31:58;;;;;;;7.15;2.78;;;;;;;;;;8350261;28;20033;-61
2022/11/10 11:36:07;;;;;;;7.28;3.13;;;;;;;;;;8350421;28;20031;-61
2022/11/10 11:40:20;;;;;;;6.63;2.67;;;;;;;;;;8352343;28;20032;-61
2022/11/10 11:44:20;;;;;;;8.55;2.75;;;;;;;;;;8351728;28;20059;-62
2022/11/10 11:48:21;;;;;;;11.82;3.10;;;;;;;;;;8347933;28;20597;-61
2022/11/10 11:52:21;;;;;;;8.02;2.67;;;;;;;;;;8350229;28;20532;-61
2022/11/10 11:56:30;;;;;;;8.43;2.97;;;;;;;;;;8352179;28;20523;-60
2022/11/10 12:00:37;;;;;;;6.25;2.63;;;;;;;;;;8350834;28;20146;-61
2022/11/10 12:05:07;;;;;;;5.57;2.30;;;;;;;;;;8347640;28;20028;-61
2022/11/10 12:09:19;;;;;;;7.85;2.47;;;;;;;;;;8276331;28;20050;-61
2022/11/10 12:13:33;;;;;;;7.45;2.30;;;;;;;;;;8351015;28;20035;-61
2022/11/10 12:17:33;;;;;;;7.15;2.50;;;;;;;;;;8350777;28;20041;-61
2022/11/10 12:21:40;;;;;;;9.30;2.85;;;;;;;;;;8351968;28;20456;-62
2022/11/10 12:25:40;;;;;;;6.53;2.28;;;;;;;;;;8347385;28;20016;-61
2022/11/10 12:29:46;;;;;;;11.43;2.85;;;;;;;;;;8352268;28;20102;-62
2022/11/10 12:33:49;;;;;;;9.13;2.10;;;;;;;;;;8350394;28;20062;-61
2022/11/10 12:37:52;;;;;;;8.73;2.33;;;;;;;;;;8352073;28;20398;-61
2022/11/10 12:41:56;;;;;;;6.57;2.20;;;;;;;;;;8349273;28;20016;-61
2022/11/10 12:45:56;;;;;;;;;;;;;;;;;;8348252;28;20716;-61
2022/11/10 12:50:00;;;;;;;3.55;1.98;;;;;;;;;;8350533;28;19984;-62
2022/11/10 12:54:01;;;;;;;5.85;1.90;;;;;;;;;;8349979;28;20079;-62
2022/11/10 12:58:02;;;;;;;8.13;2.53;;;;;;;;;;8351248;28;20020;-61
2022/11/10 13:02:21;;;;;;;8.82;2.22;;;;;;;;;;8348623;28;20464;-61
2022/11/10 13:06:29;;;;;;;8.68;2.47;;;;;;;;;;8348112;28;20024;-62
2022/11/10 13:10:29;;;;;;;8.23;2.22;;;;;;;;;;8352843;28;20497;-62
2022/11/10 13:14:30;;;;;;;8.65;2.55;;;;;;;;;;8348143;28;20476;-63
2022/11/10 13:18:30;;;;;;;10.82;2.90;;;;;;;;;;8346519;28;20036;-62
2022/11/10 13:22:39;;;;;;;6.32;2.17;;;;;;;;;;8350098;28;20345;-62
2022/11/10 13:26:39;;;;;;;6.80;2.42;;;;;;;;;;8346480;28;20020;-62
2022/11/10 13:30:42;;;;;;;6.75;2.42;;;;;;;;;;8331225;28;20063;-62
2022/11/10 13:34:43;;;;;;;9.48;2.80;;;;;;;;;;8349298;28;20296;-62
2022/11/10 13:38:44;;;;;;;7.47;2.58;;;;;;;;;;8346186;28;20106;-62
2022/11/10 13:42:57;;;;;;;7.05;2.63;;;;;;;;;;8347568;28;20025;-62
2022/11/10 13:47:06;;;;;;;5.10;2.22;;;;;;;;;;8348055;28;20028;-62
2022/11/10 13:51:12;;;;;;;5.35;2.40;;;;;;;;;;8350774;28;20137;-62
2022/11/10 13:55:28;;;;;;;5.72;2.20;;;;;;;;;;8349466;28;20504;-63
2022/11/10 13:59:29;;;;;;;6.78;2.10;;;;;;;;;;8347944;28;20305;-62
2022/11/10 14:03:45;;;;;;;5.50;2.50;;;;;;;;;;8345707;28;20457;-61
2022/11/10 14:07:45;;;;;;;7.45;2.50;;;;;;;;;;8347439;28;20020;-62
2022/11/10 14:11:48;;;;;;;4.72;2.35;;;;;;;;;;8346988;28;20095;-62
2022/11/10 14:15:50;;;;;;;7.87;2.20;;;;;;;;;;8347493;28;20041;-62
2022/11/10 14:19:51;;;;;;;7.28;2.13;;;;;;;;;;8350322;28;20028;-62
2022/11/10 14:23:54;;;;;;;7.83;1.90;;;;;;;;;;8352819;28;20031;-62
2022/11/10 14:27:55;;;;;;;6.90;1.98;;;;;;;;;;8354939;28;20266;-62
2022/11/10 14:31:56;;;;;;;4.30;1.70;;;;;;;;;;8354274;28;20235;-63
2022/11/10 14:36:04;;;;;;;6.78;1.92;;;;;;;;;;8353713;28;20138;-62
2022/11/10 14:40:11;;;;;;;2.90;1.60;;;;;;;;;;8356215;28;20035;-63
2022/11/10 14:44:14;;;;;;;4.47;1.75;;;;;;;;;;8359364;28;20341;-63
2022/11/10 14:48:16;;;;;;;5.27;2.37;;;;;;;;;;8353371;28;20040;-63
2022/11/10 14:52:16;;;;;;;3.58;1.88;;;;;;;;;;8333566;28;20098;-63
2022/11/10 14:56:19;;;;;;;4.23;1.87;;;;;;;;;;8345407;28;20229;-63
2022/11/10 15:00:24;;;;;;;8.57;2.00;;;;;;;;;;8353186;28;20278;-68
2022/11/10 15:04:27;;;;;;;4.00;1.70;;;;;;;;;;8351928;28;20027;-63
2022/11/10 15:08:28;;;;;;;3.20;1.80;;;;;;;;;;8353880;28;20020;-63
2022/11/10 15:12:28;;;;;;;4.35;1.58;;;;;;;;;;8350617;28;20667;-63
2022/11/10 15:16:30;;;;;;;4.80;1.80;;;;;;;;;;8346605;28;20037;-62
2022/11/10 15:20:38;;;;;;;5.80;2.05;;;;;;;;;;8350548;28;20315;-62
2022/11/10 15:24:42;;;;;;;10.13;2.22;;;;;;;;;;8346212;28;20020;-62
2022/11/10 15:28:42;;;;;;;7.65;2.28;;;;;;;;;;8351609;28;20119;-64
2022/11/10 15:32:47;;;;;;;5.97;2.53;;;;;;;;;;8324293;28;20090;-63
2022/11/10 15:36:48;;;;;;;4.80;2.53;;;;;;;;;;8348708;28;20028;-62
2022/11/10 15:40:49;;;;;;;6.18;2.53;;;;;;;;;;8349377;28;20028;-63
2022/11/10 15:44:49;;;;;;;4.95;3.00;;;;;;;;;;8350668;28;20111;-63
2022/11/10 15:48:50;;;;;;;11.43;4.32;;;;;;;;;;8348549;28;20063;-63
2022/11/10 15:52:50;;;;;;;16.48;3.58;;;;;;;;;;8351158;28;20016;-62
2022/11/10 15:56:50;;;;;;;14.13;3.15;;;;;;;;;;8347798;28;20132;-62
2022/11/10 16:00:51;;;;;;;14.52;4.03;;;;;;;;;;8348546;28;20576;-63
2022/11/10 16:04:53;;;;;;;16.15;4.13;;;;;;;;;;8350015;28;20481;-63
2022/11/10 16:08:53;;;;;;;11.07;5.07;;;;;;;;;;8351751;28;20020;-63
2022/11/10 16:12:54;;;;;;;24.92;4.65;;;;;;;;;;8348399;28;20023;-63
2022/11/10 16:16:54;;;;;;;17.08;4.10;;;;;;;;;;8348868;28;20037;-63
2022/11/10 16:20:55;;;;;;;5.97;2.92;;;;;;;;;;8342124;28;20020;-63
2022/11/10 16:24:55;;;;;;;6.63;2.55;;;;;;;;;;8346017;28;20477;-63
2022/11/10 16:28:55;;;;;;;6.07;2.60;;;;;;;;;;8330222;28;20036;-63
2022/11/10 16:32:55;;;;;;;11.07;3.08;;;;;;;;;;8344232;28;20062;-62
2022/11/10 16:36:56;;;;;;;7.35;3.05;;;;;;;;;;8347208;28;20027;-62
2022/11/10 16:40:57;;;;;;;5.85;2.60;;;;;;;;;;8345521;28;20025;-63
2022/11/10 16:44:58;;;;;;;7.50;3.50;;;;;;;;;;8345623;28;20226;-62
2022/11/10 16:48:59;;;;;;;8.40;3.35;;;;;;;;;;8341285;28;20328;-63
2022/11/10 16:53:04;;;;;;;11.57;4.32;;;;;;;;;;8343796;28;20024;-63
2022/11/10 16:57:14;;;;;;;8.93;3.17;;;;;;;;;;8343164;28;20085;-64
2022/11/10 17:01:22;;;;;;;6.55;3.70;;;;;;;;;;8342705;28;20494;-63
2022/11/10 17:05:22;;;;;;;8.77;4.20;;;;;;;;;;8339783;28;20559;-63
2022/11/10 17:09:24;;;;;;;12.07;4.50;;;;;;;;;;8343569;28;20874;-64
2022/11/10 17:13:25;;;;;;;9.45;4.45;;;;;;;;;;8344715;28;20733;-64
2022/11/10 17:17:25;;;;;;;14.02;4.40;;;;;;;;;;8344409;28;20036;-64
2022/11/10 17:21:25;;;;;;;8.88;4.57;;;;;;;;;;8342998;28;20035;-63
2022/11/10 17:25:27;;;;;;;10.75;4.88;;;;;;;;;;8345423;28;20028;-64
2022/11/10 17:29:28;;;;;;;10.93;5.60;;;;;;;;;;8343804;28;20455;-64
2022/11/10 17:33:28;;;;;;;10.98;6.88;;;;;;;;;;8345652;28;20071;-64
2022/11/10 17:37:28;;;;;;;11.13;6.65;;;;;;;;;;8335127;28;20046;-64
2022/11/10 17:41:28;;;;;;;10.15;6.28;;;;;;;;;;8351105;28;20100;-64
2022/11/10 17:45:29;;;;;;;10.85;6.03;;;;;;;;;;8354439;28;20043;-64
2022/11/10 17:49:29;;;;;;;10.20;6.63;;;;;;;;;;8352718;28;20047;-65
2022/11/10 17:53:29;;;;;;;13.95;6.70;;;;;;;;;;8355298;28;20473;-63
2022/11/10 17:57:30;;;;;;;15.65;7.15;;;;;;;;;;8348469;28;20714;-63
2022/11/10 18:01:30;;;;;;;14.23;6.97;;;;;;;;;;8341585;28;20603;-63
2022/11/10 18:05:30;;;;;;;15.05;7.30;;;;;;;;;;8341961;28;20031;-63
2022/11/10 18:09:30;;;;;;;13.77;7.20;;;;;;;;;;8325295;28;20377;-63
2022/11/10 18:13:30;;;;;;;10.38;6.22;;;;;;;;;;8345487;28;20094;-63
2022/11/10 18:17:31;;;;;;;15.18;5.93;;;;;;;;;;8342792;28;20625;-63
2022/11/10 18:21:31;;;;;;;11.80;5.63;;;;;;;;;;8341069;28;20310;-63
2022/11/10 18:25:31;;;;;;;8.52;4.82;;;;;;;;;;8342279;28;20025;-63
2022/11/10 18:29:31;;;;;;;6.28;4.22;;;;;;;;;;8343468;28;20115;-63
2022/11/10 18:33:32;;;;;;;5.75;3.70;;;;;;;;;;8342611;28;20139;-63
2022/11/10 18:37:32;;;;;;;10.63;5.28;;;;;;;;;;8344897;28;20032;-62
2022/11/10 18:41:47;;;;;;;8.80;4.78;;;;;;;;;;8344092;28;20139;-63
2022/11/10 18:45:50;;;;;;;6.65;4.22;;;;;;;;;;8339442;28;20596;-68
2022/11/10 18:49:51;;;;;;;8.80;5.70;;;;;;;;;;8342549;28;20028;-63
2022/11/10 18:53:52;;;;;;;10.90;6.22;;;;;;;;;;8333581;28;20032;-63
2022/11/10 18:57:52;;;;;;;9.15;5.93;;;;;;;;;;8351725;28;20772;-63
2022/11/10 19:01:52;;;;;;;7.30;4.50;;;;;;;;;;8348708;28;20051;-63
2022/11/10 19:05:55;;;;;;;9.63;4.40;;;;;;;;;;8352541;28;20028;-63
2022/11/10 19:09:56;;;;;;;8.52;3.90;;;;;;;;;;8356394;28;20389;-63
2022/11/10 19:14:00;;;;;;;7.57;3.38;;;;;;;;;;8357138;28;20053;-63
2022/11/10 19:18:00;;;;;;;9.27;3.47;;;;;;;;;;8358573;28;20029;-63
2022/11/10 19:22:01;;;;;;;7.40;3.83;;;;;;;;;;8355314;28;20150;-63
2022/11/10 19:26:02;;;;;;;9.77;4.25;;;;;;;;;;8358557;28;20871;-64
2022/11/10 19:30:02;;;;;;;11.55;4.00;;;;;;;;;;8356395;28;20089;-63
2022/11/10 19:34:02;;;;;;;6.35;3.38;;;;;;;;;;8351562;28;20838;-63
2022/11/10 19:38:03;;;;;;;13.70;4.00;;;;;;;;;;8356542;28;20024;-63
2022/11/10 19:42:03;;;;;;;7.03;2.92;;;;;;;;;;8359558;28;20099;-64
2022/11/10 19:46:04;;;;;;;5.13;2.60;;;;;;;;;;8354579;28;20040;-63
2022/11/10 19:50:05;;;;;;;10.88;2.40;;;;;;;;;;8338697;28;20020;-64
2022/11/10 19:54:05;;;;;;;10.63;2.50;;;;;;;;;;8356721;28;20039;-64
2022/11/10 19:58:05;;;;;;;5.60;2.17;;;;;;;;;;8356042;28;20031;-63
2022/11/10 20:02:06;;;;;;;6.25;2.67;;;;;;;;;;8356896;28;20033;-64
2022/11/10 20:06:08;;;;;;;5.68;2.33;;;;;;;;;;8351339;28;20107;-64
2022/11/10 20:10:08;;;;;;;4.75;2.17;;;;;;;;;;8338252;28;20032;-63
2022/11/10 20:14:09;;;;;;;3.88;2.10;;;;;;;;;;8354347;28;20020;-65
2022/11/10 20:18:10;;;;;;;4.90;2.50;;;;;;;;;;8354067;28;20170;-63
2022/11/10 20:22:11;;;;;;;5.25;2.33;;;;;;;;;;8356225;28;20020;-64
2022/11/10 20:26:12;;;;;;;5.03;2.65;;;;;;;;;;8355066;28;20110;-64
2022/11/10 20:30:12;;;;;;;3.70;1.90;;;;;;;;;;8357014;28;20025;-63
2022/11/10 20:34:14;;;;;;;4.43;2.10;;;;;;;;;;8356275;28;20575;-63
2022/11/10 20:38:15;;;;;;;11.20;2.67;;;;;;;;;;8356740;28;20033;-65
2022/11/10 20:42:15;;;;;;;8.50;3.45;;;;;;;;;;8357777;28;20043;-63
2022/11/10 20:46:17;;;;;;;9.10;4.63;;;;;;;;;;8353632;28;20037;-64
2022/11/10 20:50:18;;;;;;;5.15;3.67;;;;;;;;;;8355920;28;20148;-64
2022/11/10 20:54:18;;;;;;;6.63;3.80;;;;;;;;;;8356285;28;20536;-64
2022/11/10 20:58:18;;;;;;;5.75;3.50;;;;;;;;;;8355688;28;20052;-64
2022/11/10 21:02:18;;;;;;;8.48;3.85;;;;;;;;;;8349058;28;20436;-64
2022/11/10 21:06:19;;;;;;;5.45;3.05;;;;;;;;;;8345210;28;20543;-63
2022/11/10 21:10:19;;;;;;;6.15;2.97;;;;;;;;;;8354074;28;20370;-63
2022/11/10 21:14:19;;;;;;;5.63;3.15;;;;;;;;;;8353498;28;20024;-63
2022/11/10 21:18:20;;;;;;;6.55;3.10;;;;;;;;;;8354651;28;20029;-63
2022/11/10 21:22:20;;;;;;;4.35;2.80;;;;;;;;;;8356556;28;20028;-63
2022/11/10 21:26:21;;;;;;;8.85;2.65;;;;;;;;;;8355523;28;20020;-63
2022/11/10 21:30:24;;;;;;;5.35;2.30;;;;;;;;;;8353466;28;20028;-63
2022/11/10 21:34:24;;;;;;;5.30;2.20;;;;;;;;;;8347643;28;20052;-63
2022/11/10 21:38:24;;;;;;;6.70;2.83;;;;;;;;;;8334503;28;20032;-63
2022/11/10 21:42:24;;;;;;;8.73;3.22;;;;;;;;;;8352336;28;20025;-63
2022/11/10 21:46:25;;;;;;;12.07;5.00;;;;;;;;;;8356799;28;20036;-63
2022/11/10 21:50:25;;;;;;;8.00;5.57;;;;;;;;;;8336851;28;20044;-63
2022/11/10 21:54:25;;;;;;;8.40;6.03;;;;;;;;;;8356243;28;20485;-63
2022/11/10 21:58:25;;;;;;;8.93;5.20;;;;;;;;;;8355066;28;20504;-63
2022/11/10 22:02:26;;;;;;;10.07;6.25;;;;;;;;;;8354930;28;20049;-63
2022/11/10 22:07:21;;;;;;;24.73;8.10;;;;;;;;;;8354908;28;20024;-64
2022/11/10 22:19:24;;;;;;;86.47;6.65;;;;;;;;;;8356213;28;20122;-63
2022/11/10 22:27:43;;;;;;;62.00;6.43;;;;;;;;;;8355673;28;20567;-63
2022/11/10 22:31:43;;;;;;;39.22;5.00;;;;;;;;;;8353970;28;20048;-63
2022/11/10 22:35:44;;;;;;;51.95;4.90;;;;;;;;;;8357628;28;20082;-62
2022/11/10 22:44:03;;;;;;;13.80;4.15;;;;;;;;;;8360753;28;20098;-63
2022/11/10 22:52:22;;;;;;;4.75;4.05;;;;;;;;;;8361366;28;20067;-63
2022/11/10 22:56:22;;;;;;;8.27;5.05;;;;;;;;;;8357616;28;20036;-62
2022/11/10 23:00:22;;;;;;;5.38;4.30;;;;;;;;;;8362258;28;20109;-63
2022/11/10 23:04:23;;;;;;;8.85;4.22;;;;;;;;;;8360753;28;20079;-63
2022/11/10 23:08:23;;;;;;;11.15;3.95;;;;;;;;;;8360619;28;20032;-63
2022/11/10 23:12:23;;;;;;;5.43;3.92;;;;;;;;;;8363853;28;20998;-63
2022/11/10 23:16:25;;;;;;;7.00;4.72;;;;;;;;;;8359809;28;20123;-63
2022/11/10 23:20:26;;;;;;;4.05;3.55;;;;;;;;;;8359959;28;20044;-63
2022/11/10 23:24:26;;;;;;;5.23;4.47;;;;;;;;;;8360463;28;20020;-63
2022/11/10 23:28:27;;;;;;;6.35;4.55;;;;;;;;;;8359084;28;20314;-63
2022/11/10 23:32:27;;;;;;;7.53;5.15;;;;;;;;;;8362373;28;20052;-63
2022/11/10 23:36:27;;;;;;;8.02;4.82;;;;;;;;;;8360974;28;20020;-63
2022/11/10 23:40:28;;;;;;;6.93;4.70;;;;;;;;;;8359589;28;20074;-64
2022/11/10 23:44:28;;;;;;;8.98;5.40;;;;;;;;;;8360269;28;20138;-63
2022/11/10 23:48:28;;;;;;;12.48;4.78;;;;;;;;;;8358905;28;21025;-63
2022/11/10 23:52:28;;;;;;;51.47;3.85;;;;;;;;;;8359754;28;20414;-63
2022/11/10 23:56:28;;;;;;;18.70;3.80;;;;;;;;;;8362256;28;20027;-63
